Time;durP1;ratioP1;P1;durP2;ratioP2;P2;SDS_P1;SDS_P2;PMS_P1;PMS_P2;Temp;Humidity;BMP_temperature;BMP_pressure;BME280_temperature;BME280_humidity;BME280_pressure;Samples;Min_cycle;Max_cycle;Signal;HPM_P1;HPM_P2
2023/01/26 00:01:22;;;;;;;52.38;22.35;;;;;;;-0.25;100.00;101076.75;5073313;28;20045;-82
2023/01/26 00:03:49;;;;;;;49.75;21.38;;;;;;;0.30;100.00;101158.75;5071149;28;20067;-83
2023/01/26 00:06:18;;;;;;;51.35;23.08;;;;;;;0.14;100.00;101129.13;5077029;28;20113;-84
2023/01/26 00:08:48;;;;;;;57.85;23.77;;;;;;;0.30;100.00;101156.16;5080291;28;20052;-82
2023/01/26 00:11:17;;;;;;;58.60;24.57;;;;;;;0.25;100.00;101157.84;5080362;28;20075;-83
2023/01/26 00:13:44;;;;;;;56.40;23.40;;;;;;;-0.35;100.00;101060.19;5082915;28;20052;-83
2023/01/26 00:16:13;;;;;;;54.00;22.02;;;;;;;0.18;100.00;101141.28;5081325;28;20029;-84
2023/01/26 00:18:41;;;;;;;58.00;23.38;;;;;;;-0.22;100.00;101074.19;5086972;28;20045;-80
2023/01/26 00:21:11;;;;;;;61.83;24.25;;;;;;;-0.13;100.00;101087.25;5071894;28;20041;-81
2023/01/26 00:23:38;;;;;;;56.42;23.70;;;;;;;-0.07;100.00;101106.41;5076595;28;20079;-80
2023/01/26 00:26:06;;;;;;;52.70;22.60;;;;;;;0.15;100.00;101128.28;5060376;28;20140;-81
2023/01/26 00:28:33;;;;;;;58.85;23.92;;;;;;;-0.13;100.00;101089.84;5076471;28;20550;-80
2023/01/26 00:31:09;;;;;;;64.15;24.95;;;;;;;0.14;100.00;101136.94;5068558;28;20620;-80
2023/01/26 00:33:36;;;;;;;60.17;24.23;;;;;;;0.16;100.00;101135.19;5045205;28;20053;-82
2023/01/26 00:36:03;;;;;;;65.20;25.33;;;;;;;-0.05;100.00;101088.19;5064830;28;20047;-82
2023/01/26 00:38:29;;;;;;;64.30;25.70;;;;;;;-0.06;100.00;101089.91;5061965;28;20144;-80
2023/01/26 00:40:56;;;;;;;62.30;25.58;;;;;;;-0.17;100.00;101062.06;5062563;28;20059;-84
2023/01/26 00:43:23;;;;;;;57.55;23.10;;;;;;;0.02;100.00;101105.59;5080889;28;20297;-82
2023/01/26 00:45:49;;;;;;;62.22;24.52;;;;;;;-0.19;100.00;101082.88;5067797;28;20059;-80
2023/01/26 00:48:16;;;;;;;57.30;24.40;;;;;;;-0.95;100.00;100943.53;5076070;28;20420;-80
2023/01/26 00:50:43;;;;;;;58.35;24.15;;;;;;;-0.06;100.00;101099.47;5077811;28;20056;-82
2023/01/26 00:53:09;;;;;;;58.85;21.95;;;;;;;-0.04;100.00;101110.75;5080452;28;20055;-82
2023/01/26 00:55:36;;;;;;;55.95;22.98;;;;;;;0.07;100.00;101129.06;5074465;28;20083;-81
2023/01/26 00:58:05;;;;;;;49.78;20.77;;;;;;;0.09;100.00;101124.75;5075212;28;20040;-81
2023/01/26 01:00:34;;;;;;;60.10;22.75;;;;;;;-0.82;100.00;100985.25;5074436;28;20158;-82
2023/01/26 01:03:01;;;;;;;43.72;18.88;;;;;;;0.08;100.00;101129.06;5071149;28;20136;-82
2023/01/26 01:05:30;;;;;;;39.08;18.25;;;;;;;-0.76;100.00;100987.88;5054108;28;20139;-81
2023/01/26 01:07:56;;;;;;;43.65;18.52;;;;;;;-0.85;100.00;100971.34;5078956;28;20147;-81
2023/01/26 01:10:23;;;;;;;35.78;17.02;;;;;;;0.00;100.00;101122.97;5086608;28;20062;-82
2023/01/26 01:12:50;;;;;;;35.90;17.38;;;;;;;-0.20;100.00;101101.97;5072684;28;20076;-84
2023/01/26 01:15:17;;;;;;;37.38;16.85;;;;;;;0.07;100.00;101134.28;5071107;28;20075;-83
2023/01/26 01:17:44;;;;;;;41.65;18.17;;;;;;;-0.84;100.00;100975.69;5074332;28;20102;-82
2023/01/26 01:20:11;;;;;;;39.53;17.58;;;;;;;-1.56;100.00;100850.31;5069364;28;20112;-82
2023/01/26 01:22:38;;;;;;;38.67;17.90;;;;;;;-0.86;100.00;100947.06;5068854;28;20086;-82
2023/01/26 01:25:05;;;;;;;37.00;17.10;;;;;;;0.23;100.00;101144.81;5075972;28;20055;-84
2023/01/26 01:27:31;;;;;;;37.55;17.42;;;;;;;-0.33;100.00;101053.28;5083008;28;20052;-85
2023/01/26 01:30:00;;;;;;;36.28;17.13;;;;;;;0.24;100.00;101125.72;5073906;28;20052;-86
2023/01/26 01:32:27;;;;;;;36.00;16.33;;;;;;;-0.09;100.00;101099.44;5080987;28;20056;-87
2023/01/26 01:34:54;;;;;;;39.67;18.45;;;;;;;0.22;100.00;101136.97;5072733;28;20040;-85
2023/01/26 01:37:21;;;;;;;37.72;17.30;;;;;;;-0.96;100.00;100932.28;5074892;28;20048;-84
2023/01/26 01:39:48;;;;;;;41.35;18.55;;;;;;;-0.38;100.00;101027.22;5071440;28;20075;-86
2023/01/26 01:42:15;;;;;;;38.97;18.30;;;;;;;-1.22;100.00;100880.06;5087497;28;20055;-85
2023/01/26 01:44:42;;;;;;;40.35;18.45;;;;;;;-0.09;100.00;101076.88;5085150;28;20552;-85
2023/01/26 01:47:19;;;;;;;43.22;19.63;;;;;;;-0.86;100.00;100935.81;5074006;28;20048;-86
2023/01/26 01:49:50;;;;;;;38.63;17.60;;;;;;;0.16;100.00;101122.16;5068343;28;20053;-83
2023/01/26 01:52:25;;;;;;;36.58;17.35;;;;;;;-0.37;100.00;101031.56;5076395;28;20117;-83
2023/01/26 01:55:12;;;;;;;39.50;18.05;;;;;;;0.09;100.00;101091.75;5069815;28;20045;-82
2023/01/26 01:57:54;;;;;;;39.88;18.25;;;;;;;0.17;100.00;101097.88;5071978;28;20084;-81
2023/01/26 02:00:22;;;;;;;33.75;15.73;;;;;;;-0.31;100.00;101011.63;5073650;28;20136;-81
2023/01/26 02:06:00;;;;;;;36.03;16.73;;;;;;;0.25;100.00;101116.16;5075079;28;20048;-82
2023/01/26 02:08:35;;;;;;;30.33;15.13;;;;;;;0.20;100.00;101112.66;5080308;28;20101;-81
2023/01/26 02:11:16;;;;;;;30.92;15.07;;;;;;;0.06;100.00;101091.72;5073301;28;20056;-79
2023/01/26 02:13:46;;;;;;;27.13;12.93;;;;;;;-0.46;100.00;100999.38;5080963;28;20054;-82
2023/01/26 02:16:12;;;;;;;28.65;13.73;;;;;;;0.14;100.00;101102.22;5060383;28;20498;-81
2023/01/26 02:18:39;;;;;;;28.13;13.00;;;;;;;-0.05;100.00;101075.19;5067418;28;20082;-80
2023/01/26 02:21:10;;;;;;;23.30;12.70;;;;;;;0.11;100.00;101094.38;5076829;28;20464;-79
2023/01/26 02:23:53;;;;;;;25.02;12.07;;;;;;;-0.32;100.00;101041.16;5074047;28;20057;-80
2023/01/26 02:26:26;;;;;;;24.25;12.55;;;;;;;-0.19;100.00;101072.47;5080035;28;20052;-81
2023/01/26 02:28:53;;;;;;;24.67;13.20;;;;;;;-0.21;100.00;101060.31;5063864;28;20119;-84
2023/01/26 02:31:22;;;;;;;23.25;12.52;;;;;;;-0.32;100.00;101051.56;5051291;28;20493;-82
2023/01/26 02:33:49;;;;;;;23.77;12.95;;;;;;;-0.23;100.00;101060.28;5080754;28;20056;-82
2023/01/26 02:36:21;;;;;;;22.75;12.32;;;;;;;-0.33;100.00;101053.28;5081536;28;20421;-83
2023/01/26 02:39:01;;;;;;;20.90;11.35;;;;;;;-0.30;100.00;101055.00;5072184;28;20052;-83
2023/01/26 02:44:14;;;;;;;18.77;10.15;;;;;;;-0.11;100.00;101085.53;5067525;28;20052;-84
2023/01/26 02:46:40;;;;;;;19.30;10.25;;;;;;;-0.28;100.00;101061.97;5063786;28;20053;-83
2023/01/26 02:51:52;;;;;;;19.55;9.55;;;;;;;-1.10;100.00;100926.06;5062681;28;20095;-84
2023/01/26 02:57:04;;;;;;;18.42;9.68;;;;;;;-0.61;100.00;101015.75;5077877;28;20059;-82
2023/01/26 02:59:30;;;;;;;15.77;9.00;;;;;;;-0.52;100.00;101026.25;5068640;28;20048;-85
2023/01/26 03:01:57;;;;;;;13.60;7.65;;;;;;;-0.77;100.00;100965.34;5075973;28;20390;-84
2023/01/26 03:04:24;;;;;;;15.57;7.25;;;;;;;-0.34;100.00;101040.25;5067228;28;20044;-80
2023/01/26 03:06:51;;;;;;;14.00;8.10;;;;;;;-1.81;100.00;100789.50;5070107;28;20060;-84
2023/01/26 03:09:18;;;;;;;13.00;7.43;;;;;;;-0.42;100.00;101028.06;5073070;28;20412;-83
2023/01/26 03:11:44;;;;;;;15.20;8.95;;;;;;;-0.36;100.00;101054.13;5070320;28;20068;-82
2023/01/26 03:14:13;;;;;;;15.40;7.70;;;;;;;-0.25;100.00;101053.31;5078241;28;20059;-82
2023/01/26 03:16:40;;;;;;;13.40;8.15;;;;;;;-0.58;100.00;101004.50;5068331;28;20129;-81
2023/01/26 03:27:37;;;;;;;16.58;8.15;;;;;;;-0.32;100.00;101013.41;5061998;28;20656;-83
2023/01/26 03:30:04;;;;;;;13.45;7.22;;;;;;;-0.23;100.00;101046.41;5063718;28;20049;-82
2023/01/26 03:32:31;;;;;;;16.25;7.97;;;;;;;-0.83;100.00;100951.44;5077197;28;20050;-84
2023/01/26 03:34:58;;;;;;;14.45;7.40;;;;;;;-1.66;100.00;100822.53;5089107;28;20044;-83
2023/01/26 03:37:24;;;;;;;13.20;7.18;;;;;;;-0.71;100.00;100972.31;5073165;28;20677;-83
2023/01/26 03:56:31;;;;;;;13.13;7.25;;;;;;;-0.40;100.00;101009.84;5070820;28;20056;-81
2023/01/26 03:59:08;;;;;;;12.68;7.35;;;;;;;-0.41;100.00;101003.78;5077625;28;20746;-82
2023/01/26 04:01:39;;;;;;;13.55;7.53;;;;;;;-0.76;100.00;100930.69;5073196;28;20578;-82
2023/01/26 04:09:40;;;;;;;11.73;7.57;;;;;;;-0.54;100.00;100946.44;5070634;28;20048;-81
2023/01/26 04:12:09;;;;;;;12.25;6.75;;;;;;;-0.67;100.00;100942.91;5071998;28;20148;-80
2023/01/26 04:22:51;;;;;;;11.38;7.03;;;;;;;-0.27;100.00;100995.19;5075260;28;20084;-81
2023/01/26 04:25:20;;;;;;;13.18;7.38;;;;;;;-0.22;100.00;101009.09;5076011;28;20051;-82
2023/01/26 04:27:46;;;;;;;11.02;6.65;;;;;;;-0.39;100.00;100982.97;5092143;28;20044;-80
2023/01/26 04:30:15;;;;;;;10.13;6.43;;;;;;;-0.84;100.00;100897.69;5075457;28;20155;-81
2023/01/26 04:32:42;;;;;;;11.50;6.75;;;;;;;-0.40;100.00;100976.91;5052855;28;20573;-81
2023/01/26 04:35:09;;;;;;;12.45;6.72;;;;;;;-0.35;100.00;100982.13;5068641;28;20490;-80
2023/01/26 04:37:37;;;;;;;10.82;6.68;;;;;;;-0.28;100.00;100980.44;5067863;28;20059;-82
2023/01/26 04:40:05;;;;;;;10.63;6.18;;;;;;;-0.14;100.00;101002.19;5075398;28;20045;-83
2023/01/26 04:42:32;;;;;;;12.30;6.68;;;;;;;-0.22;100.00;100991.75;5087129;28;20052;-82
2023/01/26 04:44:58;;;;;;;12.63;6.53;;;;;;;-0.55;100.00;100940.38;5091444;28;20091;-84
2023/01/26 04:47:25;;;;;;;10.73;6.50;;;;;;;-0.68;100.00;100915.16;5079616;28;20052;-82
2023/01/26 04:49:54;;;;;;;10.90;6.53;;;;;;;-0.43;100.00;100952.59;5076465;28;20135;-82
2023/01/26 04:52:21;;;;;;;10.98;6.85;;;;;;;-0.44;100.00;100951.72;5075777;28;20071;-81
2023/01/26 04:54:48;;;;;;;12.57;7.07;;;;;;;-0.56;100.00;100936.03;5078342;28;20068;-81
2023/01/26 04:57:14;;;;;;;12.57;6.97;;;;;;;-0.16;100.00;101012.59;5063462;28;20056;-82
2023/01/26 04:59:41;;;;;;;12.48;6.93;;;;;;;-1.31;100.00;100801.19;5071473;28;20112;-82
2023/01/26 05:02:08;;;;;;;11.63;6.47;;;;;;;-0.78;100.00;100887.31;5078279;28;20052;-82
2023/01/26 05:04:35;;;;;;;13.75;7.13;;;;;;;-0.19;100.00;100989.19;5069878;28;20077;-82
2023/01/26 05:07:01;;;;;;;14.00;7.65;;;;;;;-0.35;100.00;100958.72;5076287;28;20584;-81
2023/01/26 05:09:28;;;;;;;11.68;6.75;;;;;;;-0.23;100.00;100986.53;5057574;28;20071;-80
2023/01/26 05:12:32;;;;;;;11.57;6.80;;;;;;;-0.49;100.00;100929.16;5072654;28;20064;-80
2023/01/26 05:14:41;;;;;;;15.50;8.05;;;;;;;-0.16;100.00;100994.38;5071428;28;20078;-80
2023/01/26 05:17:07;;;;;;;13.07;7.90;;;;;;;-0.83;100.00;100874.31;5075627;28;20053;-79
2023/01/26 05:19:34;;;;;;;11.57;7.00;;;;;;;-0.32;100.00;100960.47;5082232;28;20048;-79
2023/01/26 05:22:00;;;;;;;12.75;6.93;;;;;;;-0.43;100.00;100944.78;5065668;28;20057;-79
2023/01/26 05:24:27;;;;;;;13.95;7.28;;;;;;;-0.15;100.00;100982.25;5081018;28;20428;-80
2023/01/26 05:27:19;;;;;;;11.88;6.97;;;;;;;-0.10;100.00;100984.03;5068093;28;20049;-80
2023/01/26 05:29:40;;;;;;;14.15;7.50;;;;;;;-0.14;100.00;100970.97;5073605;28;20076;-80
2023/01/26 05:32:06;;;;;;;12.88;7.55;;;;;;;-0.17;100.00;100952.75;5074001;28;20055;-81
2023/01/26 05:34:35;;;;;;;12.73;7.07;;;;;;;-0.27;100.00;100944.00;5080937;28;20054;-79
2023/01/26 05:37:02;;;;;;;12.82;7.75;;;;;;;-0.37;100.00;100937.03;5082064;28;20044;-80
2023/01/26 05:39:28;;;;;;;12.98;7.40;;;;;;;-0.50;100.00;100932.59;5065102;28;20048;-79
2023/01/26 05:41:55;;;;;;;13.05;7.35;;;;;;;-0.16;100.00;100988.34;5066720;28;20111;-78
2023/01/26 05:44:28;;;;;;;14.48;8.10;;;;;;;-0.61;100.00;100913.44;5066889;28;20102;-79
2023/01/26 05:46:54;;;;;;;13.15;8.20;;;;;;;-0.37;100.00;100945.69;5073740;28;20454;-79
2023/01/26 05:49:21;;;;;;;14.27;8.05;;;;;;;-0.28;100.00;100967.41;5073734;28;20048;-82
2023/01/26 05:51:47;;;;;;;14.32;7.80;;;;;;;-0.32;100.00;100965.69;5082104;28;20056;-80
2023/01/26 05:54:14;;;;;;;14.23;8.02;;;;;;;-0.53;100.00;100932.59;5070199;28;20055;-79
2023/01/26 05:56:41;;;;;;;13.75;7.55;;;;;;;-0.40;100.00;100960.41;5067353;28;20052;-81
2023/01/26 05:59:07;;;;;;;15.55;7.93;;;;;;;-0.86;100.00;100889.00;5073938;28;20036;-81
2023/01/26 06:01:34;;;;;;;13.13;7.90;;;;;;;-0.84;100.00;100901.16;5071329;28;20063;-80
2023/01/26 06:04:01;;;;;;;13.30;7.72;;;;;;;-0.32;100.00;100976.09;5055817;28;20138;-79
2023/01/26 06:06:28;;;;;;;14.82;7.50;;;;;;;-0.64;100.00;100935.13;5065419;28;20551;-79
2023/01/26 06:08:54;;;;;;;12.10;7.65;;;;;;;-0.41;100.00;100956.94;5072629;28;20053;-80
2023/01/26 06:11:21;;;;;;;16.15;8.65;;;;;;;-0.12;100.00;101026.50;5081897;28;20051;-80
2023/01/26 06:13:48;;;;;;;16.05;8.80;;;;;;;-1.69;100.00;100728.16;5079682;28;20106;-80
2023/01/26 06:16:14;;;;;;;14.15;7.53;;;;;;;-1.12;100.00;100823.84;5086891;28;20048;-80
2023/01/26 06:18:41;;;;;;;12.60;7.75;;;;;;;-0.18;100.00;101003.94;5080057;28;20500;-80
2023/01/26 06:21:08;;;;;;;15.02;7.70;;;;;;;-0.54;100.00;100934.31;5074807;28;20097;-81
2023/01/26 06:23:34;;;;;;;13.52;8.32;;;;;;;-1.07;100.00;100828.19;5074869;28;20560;-79
2023/01/26 06:26:01;;;;;;;14.40;7.78;;;;;;;-0.02;100.00;101037.03;5069942;28;20059;-80
2023/01/26 06:28:29;;;;;;;14.73;8.10;;;;;;;-0.10;100.00;101015.25;5085195;28;20052;-80
2023/01/26 06:31:00;;;;;;;13.70;7.82;;;;;;;-0.48;100.00;100957.78;5080365;28;20093;-81
2023/01/26 06:33:26;;;;;;;;;;;;;;;-0.16;100.00;101022.19;5083878;28;20057;-80
2023/01/26 06:35:54;;;;;;;14.00;7.50;;;;;;;-0.37;100.00;100989.94;5084507;28;19920;-80
2023/01/26 06:38:21;;;;;;;12.75;7.90;;;;;;;-0.19;100.00;101014.34;5082494;28;20130;-80
2023/01/26 06:40:48;;;;;;;14.35;7.63;;;;;;;-0.23;100.00;101016.03;5073387;28;20171;-80
2023/01/26 06:43:14;;;;;;;12.93;7.68;;;;;;;-0.36;100.00;100988.19;5073539;28;20045;-80
2023/01/26 06:45:41;;;;;;;14.10;7.25;;;;;;;-0.80;100.00;100941.94;5064107;28;20061;-82
2023/01/26 06:48:08;;;;;;;13.02;7.82;;;;;;;-0.46;100.00;100992.44;5072615;28;20060;-81
2023/01/26 06:50:35;;;;;;;12.07;7.63;;;;;;;-0.45;100.00;101001.13;5074403;28;20056;-81
2023/01/26 06:53:25;;;;;;;14.05;8.15;;;;;;;-0.63;100.00;100972.41;5078499;28;20052;-81
2023/01/26 06:55:51;;;;;;;12.60;7.72;;;;;;;-0.67;100.00;100981.91;5082334;28;20067;-80
2023/01/26 06:58:18;;;;;;;14.02;8.13;;;;;;;-0.97;100.00;100929.66;5081521;28;20059;-81
2023/01/26 07:00:44;;;;;;;12.68;7.40;;;;;;;-0.75;100.00;100980.97;5066982;28;20055;-80
2023/01/26 07:03:11;;;;;;;14.57;8.10;;;;;;;-0.50;100.00;101028.88;5081292;28;20044;-81
2023/01/26 07:05:38;;;;;;;12.68;7.45;;;;;;;-1.07;100.00;100952.94;5072289;28;20064;-80
2023/01/26 07:08:07;;;;;;;14.35;8.30;;;;;;;-1.19;100.00;100916.47;5072985;28;20152;-80
2023/01/26 07:10:34;;;;;;;12.45;8.00;;;;;;;-0.84;100.00;100965.28;5067103;28;20193;-81
2023/01/26 07:13:03;;;;;;;12.25;7.65;;;;;;;-0.45;100.00;101043.63;5062859;28;20052;-81
2023/01/26 07:15:30;;;;;;;14.43;8.00;;;;;;;-0.43;100.00;101059.25;5056313;28;20063;-79
2023/01/26 07:17:57;;;;;;;12.40;7.28;;;;;;;-0.62;100.00;101016.59;5062310;28;20059;-81
2023/01/26 07:20:24;;;;;;;13.15;8.27;;;;;;;-0.46;100.00;101041.88;5069536;28;20131;-80
2023/01/26 07:22:51;;;;;;;12.38;7.38;;;;;;;-0.56;100.00;101028.81;5066665;28;20052;-81
2023/01/26 07:25:18;;;;;;;13.43;7.80;;;;;;;-0.38;100.00;101050.63;5063311;28;20143;-81
2023/01/26 07:27:45;;;;;;;14.73;7.07;;;;;;;-0.56;100.00;101024.47;5060858;28;20053;-82
2023/01/26 07:30:13;;;;;;;11.48;7.63;;;;;;;-0.35;100.00;101055.00;5065784;28;20048;-80
2023/01/26 07:32:40;;;;;;;16.48;7.38;;;;;;;-0.48;100.00;101028.03;5066925;28;20054;-81
2023/01/26 07:35:07;;;;;;;9.93;6.72;;;;;;;-0.37;100.00;101057.59;5064604;28;20147;-80
2023/01/26 07:37:34;;;;;;;11.95;7.30;;;;;;;-1.17;100.00;100913.88;5068680;28;20131;-79
2023/01/26 07:40:00;;;;;;;12.63;6.97;;;;;;;-0.92;100.00;100946.13;5079323;28;20048;-80
2023/01/26 07:42:29;;;;;;;11.10;6.78;;;;;;;-0.64;100.00;101004.47;5063973;28;20052;-81
2023/01/26 07:44:56;;;;;;;9.77;6.30;;;;;;;-0.59;100.00;100997.56;5075874;28;20107;-81
2023/01/26 07:47:23;;;;;;;10.52;6.72;;;;;;;-0.60;100.00;101004.47;5064418;28;20105;-81
2023/01/26 07:49:49;;;;;;;10.52;6.70;;;;;;;-0.74;100.00;101001.78;5072548;28;20058;-80
2023/01/26 07:52:16;;;;;;;12.85;7.13;;;;;;;-0.95;100.00;100983.41;5056517;28;20049;-82
2023/01/26 07:54:43;;;;;;;11.85;7.47;;;;;;;-0.98;100.00;100957.38;5079902;28;20067;-79
2023/01/26 07:57:11;;;;;;;11.43;7.43;;;;;;;-0.77;100.00;101014.75;5073391;28;20044;-80
2023/01/26 07:59:38;;;;;;;11.48;7.30;;;;;;;-1.09;100.00;100964.19;5069554;28;20061;-80
2023/01/26 08:02:05;;;;;;;12.43;7.32;;;;;;;-1.18;100.00;100967.59;5062946;28;20074;-80
2023/01/26 08:04:31;;;;;;;11.38;7.22;;;;;;;-0.51;100.00;101082.63;5072354;28;20181;-80
2023/01/26 08:06:58;;;;;;;9.60;6.97;;;;;;;-0.67;100.00;101057.34;5069087;28;20053;-80
2023/01/26 08:09:25;;;;;;;13.30;7.55;;;;;;;-0.63;100.00;101064.28;5054048;28;20044;-80
2023/01/26 08:11:52;;;;;;;12.18;7.60;;;;;;;-1.11;100.00;100977.19;5071929;28;20069;-80
2023/01/26 08:14:18;;;;;;;12.50;7.40;;;;;;;-0.93;100.00;101018.06;5075204;28;20098;-80
2023/01/26 08:16:45;;;;;;;13.68;7.32;;;;;;;-0.51;100.00;101066.13;5070428;28;20069;-79
2023/01/26 08:19:12;;;;;;;11.02;7.13;;;;;;;-0.85;100.00;101025.94;5066761;28;20106;-79
2023/01/26 08:21:38;;;;;;;10.25;6.90;;;;;;;-1.06;100.00;101004.09;5073954;28;20074;-81
2023/01/26 08:24:05;;;;;;;12.00;7.57;;;;;;;-1.07;100.00;101010.13;5055888;28;20053;-79
2023/01/26 08:26:32;;;;;;;11.07;7.25;;;;;;;-1.56;100.00;100933.41;5063166;28;20076;-79
2023/01/26 08:28:58;;;;;;;10.13;6.80;;;;;;;-0.77;100.00;101071.09;5068164;28;20089;-80
2023/01/26 08:31:26;;;;;;;12.18;7.50;;;;;;;-0.81;100.00;101069.34;5071076;28;20056;-79
2023/01/26 08:33:54;;;;;;;10.77;6.88;;;;;;;-0.75;100.00;101058.97;5060553;28;20070;-81
2023/01/26 08:36:22;;;;;;;12.15;6.75;;;;;;;-0.53;100.00;101083.47;5074513;28;20051;-80
2023/01/26 08:38:50;;;;;;;10.15;6.47;;;;;;;-0.64;100.00;101061.69;5074791;28;20109;-79
2023/01/26 08:41:17;;;;;;;10.88;6.68;;;;;;;-0.46;100.00;101073.09;5074898;28;20051;-79
2023/01/26 08:43:44;;;;;;;10.82;6.50;;;;;;;-0.42;100.00;101095.69;5074894;28;20049;-80
2023/01/26 08:46:10;;;;;;;11.40;6.85;;;;;;;-1.38;100.00;100922.34;5075445;28;20060;-80
2023/01/26 08:48:37;;;;;;;10.57;7.10;;;;;;;-0.88;100.00;101010.31;5073723;28;20106;-82
2023/01/26 08:51:05;;;;;;;13.57;9.43;;;;;;;-0.57;100.00;101066.06;5071632;28;20051;-80
2023/01/26 08:53:34;;;;;;;12.48;8.10;;;;;;;-0.55;100.00;101078.25;5068359;28;20132;-80
2023/01/26 08:56:02;;;;;;;14.32;8.52;;;;;;;-1.35;100.00;100950.06;5046141;28;20049;-81
2023/01/26 08:58:30;;;;;;;13.88;7.72;;;;;;;-1.33;100.00;100954.44;5074788;28;20563;-80
2023/01/26 09:00:56;;;;;;;12.43;8.30;;;;;;;-0.45;100.00;101086.97;5089866;28;20054;-81
2023/01/26 09:03:23;;;;;;;12.05;8.05;;;;;;;-0.46;100.00;101100.84;5074377;28;20053;-80
2023/01/26 09:05:50;;;;;;;12.80;8.18;;;;;;;-1.27;100.00;100961.44;5074374;28;20417;-81
2023/01/26 09:08:16;;;;;;;15.38;8.32;;;;;;;-0.77;100.00;101056.34;5074490;28;20055;-82
2023/01/26 09:10:44;;;;;;;14.13;8.40;;;;;;;-0.76;100.00;101031.22;5073699;28;20060;-81
2023/01/26 09:13:10;;;;;;;11.93;8.07;;;;;;;-0.49;100.00;101073.09;5074688;28;20052;-80
2023/01/26 09:15:37;;;;;;;14.60;9.07;;;;;;;-0.45;100.00;101067.03;5086357;28;20054;-82
2023/01/26 09:18:04;;;;;;;15.93;8.80;;;;;;;-0.36;100.00;101093.16;5073433;28;20059;-80
2023/01/26 09:20:30;;;;;;;12.88;8.55;;;;;;;-0.30;100.00;101099.25;5074742;28;20047;-80
2023/01/26 09:22:57;;;;;;;15.00;9.18;;;;;;;-0.56;100.00;101042.69;5074615;28;20057;-80
2023/01/26 09:25:24;;;;;;;18.42;9.45;;;;;;;-0.57;100.00;101048.75;5077091;28;20060;-80
2023/01/26 09:27:50;;;;;;;13.45;8.38;;;;;;;-0.65;100.00;101050.41;5085106;28;20068;-81
2023/01/26 09:30:17;;;;;;;13.73;9.13;;;;;;;-0.30;100.00;101115.75;5076613;28;20041;-80
2023/01/26 09:32:44;;;;;;;15.80;9.88;;;;;;;-0.38;100.00;101091.41;5076958;28;20464;-80
2023/01/26 09:35:10;;;;;;;15.80;9.32;;;;;;;-0.63;100.00;101042.63;5073545;28;20056;-82
2023/01/26 09:37:42;;;;;;;15.70;9.98;;;;;;;-0.53;100.00;101057.44;5076041;28;20049;-81
2023/01/26 09:40:17;;;;;;;17.17;9.27;;;;;;;-0.24;100.00;101125.34;5079549;28;20059;-80
2023/01/26 09:43:00;;;;;;;13.57;9.07;;;;;;;-0.41;100.00;101076.63;5073644;28;20511;-81
2023/01/26 09:45:36;;;;;;;15.48;9.52;;;;;;;-0.16;100.00;101097.66;5082743;28;20053;-79
2023/01/26 09:48:28;;;;;;;15.75;10.00;;;;;;;-0.11;100.00;101090.75;5068239;28;20049;-81
2023/01/26 09:51:11;;;;;;;14.82;9.68;;;;;;;-0.33;100.00;101042.88;5075121;28;20068;-79
2023/01/26 09:53:46;;;;;;;17.15;10.95;;;;;;;-0.20;100.00;101080.28;5073259;28;20525;-80
2023/01/26 09:56:19;;;;;;;18.88;10.45;;;;;;;-0.49;100.00;101048.81;5067778;28;20052;-79
2023/01/26 09:58:55;;;;;;;17.90;10.75;;;;;;;-0.37;100.00;101057.59;5069134;28;20080;-80
2023/01/26 10:01:30;;;;;;;14.88;9.50;;;;;;;-0.25;100.00;101087.16;5079224;28;20033;-81
2023/01/26 10:04:02;;;;;;;16.52;11.02;;;;;;;-0.63;100.00;101048.66;5076175;28;20058;-79
2023/01/26 10:06:31;;;;;;;17.48;10.70;;;;;;;-0.42;100.00;101102.63;5068176;28;20152;-80
2023/01/26 10:09:13;;;;;;;15.52;9.80;;;;;;;-1.15;100.00;100996.22;5075897;28;20052;-81
2023/01/26 10:11:45;;;;;;;18.52;11.50;;;;;;;-1.31;100.00;100951.88;5077589;28;20140;-80
2023/01/26 10:14:20;;;;;;;16.75;10.93;;;;;;;-1.07;100.00;100996.25;5077701;28;20060;-80
2023/01/26 10:16:50;;;;;;;18.15;10.75;;;;;;;-1.83;100.00;100858.69;5072181;28;20124;-79
2023/01/26 10:19:44;;;;;;;18.83;10.88;;;;;;;-0.29;100.00;101106.19;5085332;28;20105;-81
2023/01/26 10:22:24;;;;;;;17.58;10.73;;;;;;;-0.26;100.00;101095.81;5094262;28;20109;-79
2023/01/26 10:24:52;;;;;;;21.17;11.23;;;;;;;-0.48;100.00;101053.16;5073969;28;20056;-80
2023/01/26 10:27:19;;;;;;;15.85;10.27;;;;;;;-0.60;100.00;101038.31;5081392;28;20048;-82
2023/01/26 10:29:45;;;;;;;20.25;11.18;;;;;;;-1.45;100.00;100898.06;5069014;28;20074;-81
2023/01/26 10:32:15;;;;;;;19.10;11.38;;;;;;;-1.30;100.00;100928.50;5073598;28;20132;-79
2023/01/26 10:34:45;;;;;;;17.10;10.77;;;;;;;-0.69;100.00;101011.34;5072502;28;20143;-79
2023/01/26 10:37:27;;;;;;;21.65;11.60;;;;;;;-0.29;100.00;101061.97;5072495;28;20139;-80
2023/01/26 10:40:00;;;;;;;19.20;10.95;;;;;;;-0.68;100.00;101013.97;5065779;28;20056;-81
2023/01/26 10:42:30;;;;;;;17.58;10.73;;;;;;;-0.50;100.00;101070.50;5072991;28;20106;-81
2023/01/26 10:45:00;;;;;;;19.80;12.00;;;;;;;-0.48;100.00;101069.66;5069455;28;20080;-80
2023/01/26 10:47:27;;;;;;;;;;;;;;;-0.45;100.00;101066.16;5074495;28;20056;-80
2023/01/26 10:50:23;;;;;;;16.73;10.52;;;;;;;-0.79;100.00;101016.44;5069776;28;20372;-79
2023/01/26 10:53:01;;;;;;;20.10;10.88;;;;;;;-1.01;100.00;100972.94;5063176;28;20076;-79
2023/01/26 10:55:30;;;;;;;16.08;10.40;;;;;;;-0.69;100.00;101030.44;5064272;28;20139;-79
2023/01/26 10:57:57;;;;;;;20.58;11.27;;;;;;;-1.17;100.00;100961.53;5080453;28;20048;-80
2023/01/26 11:00:30;;;;;;;20.95;11.20;;;;;;;-1.28;100.00;100964.88;5068201;28;20052;-79
2023/01/26 11:03:12;;;;;;;20.73;11.50;;;;;;;-0.50;100.00;101060.06;5067968;28;20126;-80
2023/01/26 11:05:39;;;;;;;19.52;11.52;;;;;;;-1.47;100.00;100878.97;5077103;28;20089;-78
2023/01/26 11:08:31;;;;;;;19.63;10.45;;;;;;;-1.86;100.00;100791.16;5073883;28;20421;-79
2023/01/26 11:10:58;;;;;;;15.35;9.63;;;;;;;-1.17;100.00;100911.28;5072662;28;20135;-79
2023/01/26 11:13:24;;;;;;;16.13;9.65;;;;;;;-0.44;100.00;101055.78;5065825;28;20062;-79
2023/01/26 11:16:19;;;;;;;15.23;9.75;;;;;;;-0.39;100.00;101056.69;5071635;28;20052;-79
2023/01/26 11:18:57;;;;;;;16.85;9.18;;;;;;;-0.27;100.00;101045.50;5077799;28;20409;-79
2023/01/26 11:21:32;;;;;;;13.88;9.43;;;;;;;-0.77;100.00;100951.47;5072177;28;20057;-82
